sensor_id;sensor_type;location;lat;lon;timestamp;temperature;humidity
42743;DHT22;28397;44.552;-0.848;2022-10-30T00:02:00;15.40;99.90
42743;DHT22;28397;44.552;-0.848;2022-10-30T00:04:25;15.40;99.90
42743;DHT22;28397;44.552;-0.848;2022-10-30T00:06:51;15.30;99.90
42743;DHT22;28397;44.552;-0.848;2022-10-30T00:09:17;15.40;99.90
42743;DHT22;28397;44.552;-0.848;2022-10-30T00:11:43;15.30;99.90
42743;DHT22;28397;44.552;-0.848;2022-10-30T00:14:08;15.20;99.90
42743;DHT22;28397;44.552;-0.848;2022-10-30T00:16:34;15.20;99.90
42743;DHT22;28397;44.552;-0.848;2022-10-30T00:19:00;15.20;99.90
42743;DHT22;28397;44.552;-0.848;2022-10-30T00:21:26;15.20;99.90
42743;DHT22;28397;44.552;-0.848;2022-10-30T00:23:52;15.20;99.90
42743;DHT22;28397;44.552;-0.848;2022-10-30T00:26:20;15.10;99.90
42743;DHT22;28397;44.552;-0.848;2022-10-30T00:28:53;15.10;99.90
42743;DHT22;28397;44.552;-0.848;2022-10-30T00:31:19;15.10;99.90
42743;DHT22;28397;44.552;-0.848;2022-10-30T00:33:53;15.10;99.90
42743;DHT22;28397;44.552;-0.848;2022-10-30T00:36:19;15.10;99.90
42743;DHT22;28397;44.552;-0.848;2022-10-30T00:38:45;15.10;99.90
42743;DHT22;28397;44.552;-0.848;2022-10-30T00:41:14;15.00;99.90
42743;DHT22;28397;44.552;-0.848;2022-10-30T00:43:40;15.00;99.90
42743;DHT22;28397;44.552;-0.848;2022-10-30T00:46:32;14.90;99.90
42743;DHT22;28397;44.552;-0.848;2022-10-30T00:49:13;14.90;99.90
42743;DHT22;28397;44.552;-0.848;2022-10-30T00:51:44;15.00;99.90
42743;DHT22;28397;44.552;-0.848;2022-10-30T00:54:13;14.90;99.90
42743;DHT22;28397;44.552;-0.848;2022-10-30T00:56:40;14.90;99.90
42743;DHT22;28397;44.552;-0.848;2022-10-30T00:59:09;14.80;99.90
42743;DHT22;28397;44.552;-0.848;2022-10-30T01:01:38;14.90;99.90
42743;DHT22;28397;44.552;-0.848;2022-10-30T01:04:05;14.80;99.90
42743;DHT22;28397;44.552;-0.848;2022-10-30T01:06:34;14.80;99.90
42743;DHT22;28397;44.552;-0.848;2022-10-30T01:09:02;14.80;99.90
42743;DHT22;28397;44.552;-0.848;2022-10-30T01:11:28;14.70;99.90
42743;DHT22;28397;44.552;-0.848;2022-10-30T01:13:56;14.80;99.90
42743;DHT22;28397;44.552;-0.848;2022-10-30T01:18:59;14.80;99.90
42743;DHT22;28397;44.552;-0.848;2022-10-30T01:22:01;14.70;99.90
42743;DHT22;28397;44.552;-0.848;2022-10-30T01:24:35;14.80;99.90
42743;DHT22;28397;44.552;-0.848;2022-10-30T01:30:29;14.80;99.90
42743;DHT22;28397;44.552;-0.848;2022-10-30T01:38:54;14.80;99.90
42743;DHT22;28397;44.552;-0.848;2022-10-30T01:41:21;14.80;99.90
42743;DHT22;28397;44.552;-0.848;2022-10-30T01:43:49;14.80;99.90
42743;DHT22;28397;44.552;-0.848;2022-10-30T01:46:38;14.70;99.90
42743;DHT22;28397;44.552;-0.848;2022-10-30T01:54:18;14.80;99.90
42743;DHT22;28397;44.552;-0.848;2022-10-30T01:59:43;14.70;99.90
42743;DHT22;28397;44.552;-0.848;2022-10-30T02:02:10;14.70;99.90
42743;DHT22;28397;44.552;-0.848;2022-10-30T02:04:37;14.50;99.90
42743;DHT22;28397;44.552;-0.848;2022-10-30T02:07:03;14.50;99.90
42743;DHT22;28397;44.552;-0.848;2022-10-30T02:09:29;14.50;99.90
42743;DHT22;28397;44.552;-0.848;2022-10-30T02:11:55;14.40;99.90
42743;DHT22;28397;44.552;-0.848;2022-10-30T02:14:25;14.40;99.90
42743;DHT22;28397;44.552;-0.848;2022-10-30T02:16:53;14.40;99.90
42743;DHT22;28397;44.552;-0.848;2022-10-30T02:19:21;14.40;99.90
42743;DHT22;28397;44.552;-0.848;2022-10-30T02:21:47;14.40;99.90
42743;DHT22;28397;44.552;-0.848;2022-10-30T02:24:13;14.40;99.90
42743;DHT22;28397;44.552;-0.848;2022-10-30T02:26:39;14.40;99.90
42743;DHT22;28397;44.552;-0.848;2022-10-30T02:29:04;14.40;99.90
42743;DHT22;28397;44.552;-0.848;2022-10-30T02:31:30;14.40;99.90
42743;DHT22;28397;44.552;-0.848;2022-10-30T02:33:56;14.40;99.90
42743;DHT22;28397;44.552;-0.848;2022-10-30T02:36:22;14.40;99.90
42743;DHT22;28397;44.552;-0.848;2022-10-30T02:38:47;14.40;99.90
42743;DHT22;28397;44.552;-0.848;2022-10-30T02:41:13;14.50;99.90
42743;DHT22;28397;44.552;-0.848;2022-10-30T02:43:39;14.50;99.90
42743;DHT22;28397;44.552;-0.848;2022-10-30T02:46:05;14.50;99.90
42743;DHT22;28397;44.552;-0.848;2022-10-30T02:48:30;14.50;99.90
42743;DHT22;28397;44.552;-0.848;2022-10-30T02:51:00;14.50;99.90
42743;DHT22;28397;44.552;-0.848;2022-10-30T02:53:26;14.50;99.90
42743;DHT22;28397;44.552;-0.848;2022-10-30T02:55:52;14.40;99.90
42743;DHT22;28397;44.552;-0.848;2022-10-30T02:58:18;14.50;99.90
42743;DHT22;28397;44.552;-0.848;2022-10-30T03:00:43;14.40;99.90
42743;DHT22;28397;44.552;-0.848;2022-10-30T03:03:09;14.40;99.90
42743;DHT22;28397;44.552;-0.848;2022-10-30T03:05:35;14.40;99.90
42743;DHT22;28397;44.552;-0.848;2022-10-30T03:08:01;14.50;99.90
42743;DHT22;28397;44.552;-0.848;2022-10-30T03:10:26;14.50;99.90
42743;DHT22;28397;44.552;-0.848;2022-10-30T03:12:52;14.50;99.90
42743;DHT22;28397;44.552;-0.848;2022-10-30T03:15:18;14.50;99.90
42743;DHT22;28397;44.552;-0.848;2022-10-30T03:17:44;14.50;99.90
42743;DHT22;28397;44.552;-0.848;2022-10-30T03:20:10;14.50;99.90
42743;DHT22;28397;44.552;-0.848;2022-10-30T03:22:35;14.50;99.90
42743;DHT22;28397;44.552;-0.848;2022-10-30T03:25:01;14.50;99.90
42743;DHT22;28397;44.552;-0.848;2022-10-30T03:27:27;14.50;99.90
42743;DHT22;28397;44.552;-0.848;2022-10-30T03:29:52;14.50;99.90
42743;DHT22;28397;44.552;-0.848;2022-10-30T03:32:18;14.50;99.90
42743;DHT22;28397;44.552;-0.848;2022-10-30T03:34:44;14.40;99.90
42743;DHT22;28397;44.552;-0.848;2022-10-30T03:37:09;14.40;99.90
42743;DHT22;28397;44.552;-0.848;2022-10-30T03:39:35;14.50;99.90
42743;DHT22;28397;44.552;-0.848;2022-10-30T03:42:01;14.40;99.90
42743;DHT22;28397;44.552;-0.848;2022-10-30T03:44:26;14.50;99.90
42743;DHT22;28397;44.552;-0.848;2022-10-30T03:46:52;14.40;99.90
42743;DHT22;28397;44.552;-0.848;2022-10-30T03:49:18;14.40;99.90
42743;DHT22;28397;44.552;-0.848;2022-10-30T03:51:43;14.40;99.90
42743;DHT22;28397;44.552;-0.848;2022-10-30T03:54:09;14.40;99.90
42743;DHT22;28397;44.552;-0.848;2022-10-30T03:56:35;14.40;99.90
42743;DHT22;28397;44.552;-0.848;2022-10-30T03:59:00;14.40;99.90
42743;DHT22;28397;44.552;-0.848;2022-10-30T04:01:26;14.40;99.90
42743;DHT22;28397;44.552;-0.848;2022-10-30T04:03:52;14.40;99.90
42743;DHT22;28397;44.552;-0.848;2022-10-30T04:06:17;14.40;99.90
42743;DHT22;28397;44.552;-0.848;2022-10-30T04:08:43;14.30;99.90
42743;DHT22;28397;44.552;-0.848;2022-10-30T04:11:09;14.30;99.90
42743;DHT22;28397;44.552;-0.848;2022-10-30T04:13:36;14.30;99.90
42743;DHT22;28397;44.552;-0.848;2022-10-30T04:16:02;14.30;99.90
42743;DHT22;28397;44.552;-0.848;2022-10-30T04:18:28;14.30;99.90
42743;DHT22;28397;44.552;-0.848;2022-10-30T04:20:54;14.30;99.90
42743;DHT22;28397;44.552;-0.848;2022-10-30T04:23:20;14.40;99.90
42743;DHT22;28397;44.552;-0.848;2022-10-30T04:25:46;14.30;99.90
42743;DHT22;28397;44.552;-0.848;2022-10-30T04:28:13;14.30;99.90
42743;DHT22;28397;44.552;-0.848;2022-10-30T04:30:38;14.30;99.90
42743;DHT22;28397;44.552;-0.848;2022-10-30T04:33:07;14.30;99.90
42743;DHT22;28397;44.552;-0.848;2022-10-30T04:35:35;14.30;99.90
42743;DHT22;28397;44.552;-0.848;2022-10-30T04:38:03;14.30;99.90
42743;DHT22;28397;44.552;-0.848;2022-10-30T04:40:32;14.30;99.90
42743;DHT22;28397;44.552;-0.848;2022-10-30T04:42:58;14.30;99.90
42743;DHT22;28397;44.552;-0.848;2022-10-30T04:45:24;14.30;99.90
42743;DHT22;28397;44.552;-0.848;2022-10-30T04:47:50;14.30;99.90
42743;DHT22;28397;44.552;-0.848;2022-10-30T04:50:16;14.30;99.90
42743;DHT22;28397;44.552;-0.848;2022-10-30T04:52:42;14.30;99.90
42743;DHT22;28397;44.552;-0.848;2022-10-30T04:55:09;14.30;99.90
42743;DHT22;28397;44.552;-0.848;2022-10-30T04:57:35;14.30;99.90
42743;DHT22;28397;44.552;-0.848;2022-10-30T05:00:03;14.40;99.90
42743;DHT22;28397;44.552;-0.848;2022-10-30T05:02:29;14.30;99.90
42743;DHT22;28397;44.552;-0.848;2022-10-30T05:04:55;14.30;99.90
42743;DHT22;28397;44.552;-0.848;2022-10-30T05:07:21;14.30;99.90
42743;DHT22;28397;44.552;-0.848;2022-10-30T05:09:46;14.30;99.90
42743;DHT22;28397;44.552;-0.848;2022-10-30T05:12:12;14.30;99.90
42743;DHT22;28397;44.552;-0.848;2022-10-30T05:14:38;14.10;99.90
42743;DHT22;28397;44.552;-0.848;2022-10-30T05:17:03;14.30;99.90
42743;DHT22;28397;44.552;-0.848;2022-10-30T05:19:29;14.20;99.90
42743;DHT22;28397;44.552;-0.848;2022-10-30T05:21:55;14.20;99.90
42743;DHT22;28397;44.552;-0.848;2022-10-30T05:24:20;14.20;99.90
42743;DHT22;28397;44.552;-0.848;2022-10-30T05:26:46;14.20;99.90
42743;DHT22;28397;44.552;-0.848;2022-10-30T05:29:12;14.10;99.90
42743;DHT22;28397;44.552;-0.848;2022-10-30T05:31:39;14.10;99.90
42743;DHT22;28397;44.552;-0.848;2022-10-30T05:34:04;14.20;99.90
42743;DHT22;28397;44.552;-0.848;2022-10-30T05:36:30;14.10;99.90
42743;DHT22;28397;44.552;-0.848;2022-10-30T05:38:56;14.10;99.90
42743;DHT22;28397;44.552;-0.848;2022-10-30T05:41:22;14.10;99.90
42743;DHT22;28397;44.552;-0.848;2022-10-30T05:43:47;14.10;99.90
42743;DHT22;28397;44.552;-0.848;2022-10-30T05:46:13;14.10;99.90
42743;DHT22;28397;44.552;-0.848;2022-10-30T05:48:38;14.10;99.90
42743;DHT22;28397;44.552;-0.848;2022-10-30T05:51:04;14.10;99.90
42743;DHT22;28397;44.552;-0.848;2022-10-30T05:53:31;14.10;99.90
42743;DHT22;28397;44.552;-0.848;2022-10-30T05:55:57;14.10;99.90
42743;DHT22;28397;44.552;-0.848;2022-10-30T05:58:23;14.00;99.90
42743;DHT22;28397;44.552;-0.848;2022-10-30T06:00:49;14.00;99.90
42743;DHT22;28397;44.552;-0.848;2022-10-30T06:03:15;14.00;99.90
42743;DHT22;28397;44.552;-0.848;2022-10-30T06:05:43;14.00;99.90
42743;DHT22;28397;44.552;-0.848;2022-10-30T06:08:09;14.00;99.90
42743;DHT22;28397;44.552;-0.848;2022-10-30T06:10:35;14.00;99.90
42743;DHT22;28397;44.552;-0.848;2022-10-30T06:13:04;14.00;99.90
42743;DHT22;28397;44.552;-0.848;2022-10-30T06:15:30;14.00;99.90
42743;DHT22;28397;44.552;-0.848;2022-10-30T06:17:56;14.00;99.90
42743;DHT22;28397;44.552;-0.848;2022-10-30T06:20:24;13.90;99.90
42743;DHT22;28397;44.552;-0.848;2022-10-30T06:22:57;13.90;99.90
42743;DHT22;28397;44.552;-0.848;2022-10-30T06:25:24;13.90;99.90
42743;DHT22;28397;44.552;-0.848;2022-10-30T06:27:50;13.90;99.90
42743;DHT22;28397;44.552;-0.848;2022-10-30T06:30:16;13.90;99.90
42743;DHT22;28397;44.552;-0.848;2022-10-30T06:32:42;13.90;99.90
42743;DHT22;28397;44.552;-0.848;2022-10-30T06:35:08;13.90;99.90
42743;DHT22;28397;44.552;-0.848;2022-10-30T06:37:34;13.90;99.90
42743;DHT22;28397;44.552;-0.848;2022-10-30T06:40:00;14.00;99.90
42743;DHT22;28397;44.552;-0.848;2022-10-30T06:42:26;13.90;99.90
42743;DHT22;28397;44.552;-0.848;2022-10-30T06:44:51;13.90;99.90
42743;DHT22;28397;44.552;-0.848;2022-10-30T06:47:17;13.80;99.90
42743;DHT22;28397;44.552;-0.848;2022-10-30T06:49:43;13.60;99.90
42743;DHT22;28397;44.552;-0.848;2022-10-30T06:52:09;13.70;99.90
42743;DHT22;28397;44.552;-0.848;2022-10-30T06:54:34;13.80;99.90
42743;DHT22;28397;44.552;-0.848;2022-10-30T06:57:00;13.80;99.90
42743;DHT22;28397;44.552;-0.848;2022-10-30T06:59:26;13.70;99.90
42743;DHT22;28397;44.552;-0.848;2022-10-30T07:01:52;13.80;99.90
42743;DHT22;28397;44.552;-0.848;2022-10-30T07:04:17;13.80;99.90
42743;DHT22;28397;44.552;-0.848;2022-10-30T07:06:43;14.00;99.90
42743;DHT22;28397;44.552;-0.848;2022-10-30T07:09:09;14.20;99.90
42743;DHT22;28397;44.552;-0.848;2022-10-30T07:11:35;14.20;99.90
42743;DHT22;28397;44.552;-0.848;2022-10-30T07:14:00;14.10;99.90
42743;DHT22;28397;44.552;-0.848;2022-10-30T07:16:26;14.10;99.90
42743;DHT22;28397;44.552;-0.848;2022-10-30T07:18:52;14.10;99.90
42743;DHT22;28397;44.552;-0.848;2022-10-30T07:21:18;14.10;99.90
42743;DHT22;28397;44.552;-0.848;2022-10-30T07:23:43;14.20;99.90
42743;DHT22;28397;44.552;-0.848;2022-10-30T07:26:09;14.20;99.90
42743;DHT22;28397;44.552;-0.848;2022-10-30T07:28:35;14.30;99.90
42743;DHT22;28397;44.552;-0.848;2022-10-30T07:31:00;14.40;99.90
42743;DHT22;28397;44.552;-0.848;2022-10-30T07:33:26;14.50;99.90
42743;DHT22;28397;44.552;-0.848;2022-10-30T07:35:52;14.50;99.90
42743;DHT22;28397;44.552;-0.848;2022-10-30T07:38:17;14.50;99.90
42743;DHT22;28397;44.552;-0.848;2022-10-30T07:40:43;14.70;99.90
42743;DHT22;28397;44.552;-0.848;2022-10-30T07:43:09;14.50;99.90
42743;DHT22;28397;44.552;-0.848;2022-10-30T07:45:37;14.60;99.90
42743;DHT22;28397;44.552;-0.848;2022-10-30T07:48:04;14.60;99.90
42743;DHT22;28397;44.552;-0.848;2022-10-30T07:50:31;14.70;99.90
42743;DHT22;28397;44.552;-0.848;2022-10-30T07:52:57;14.80;99.90
42743;DHT22;28397;44.552;-0.848;2022-10-30T07:55:23;14.90;99.90
42743;DHT22;28397;44.552;-0.848;2022-10-30T07:57:48;15.10;99.90
42743;DHT22;28397;44.552;-0.848;2022-10-30T08:00:17;15.40;99.90
42743;DHT22;28397;44.552;-0.848;2022-10-30T08:02:43;15.60;99.90
42743;DHT22;28397;44.552;-0.848;2022-10-30T08:05:09;16.00;99.90
42743;DHT22;28397;44.552;-0.848;2022-10-30T08:07:36;16.90;99.90
42743;DHT22;28397;44.552;-0.848;2022-10-30T08:10:03;17.30;99.90
42743;DHT22;28397;44.552;-0.848;2022-10-30T08:12:31;17.40;99.90
42743;DHT22;28397;44.552;-0.848;2022-10-30T08:14:57;17.50;99.90
42743;DHT22;28397;44.552;-0.848;2022-10-30T08:17:22;17.60;99.90
42743;DHT22;28397;44.552;-0.848;2022-10-30T08:19:48;17.40;99.90
42743;DHT22;28397;44.552;-0.848;2022-10-30T08:22:14;17.40;99.90
42743;DHT22;28397;44.552;-0.848;2022-10-30T08:24:40;17.60;99.90
42743;DHT22;28397;44.552;-0.848;2022-10-30T08:27:06;17.70;99.90
42743;DHT22;28397;44.552;-0.848;2022-10-30T08:29:31;18.20;99.90
42743;DHT22;28397;44.552;-0.848;2022-10-30T08:31:59;18.50;99.90
42743;DHT22;28397;44.552;-0.848;2022-10-30T08:34:25;18.80;99.90
42743;DHT22;28397;44.552;-0.848;2022-10-30T08:36:52;18.90;99.90
42743;DHT22;28397;44.552;-0.848;2022-10-30T08:39:18;19.40;99.90
42743;DHT22;28397;44.552;-0.848;2022-10-30T08:41:44;19.40;99.90
42743;DHT22;28397;44.552;-0.848;2022-10-30T08:44:10;18.90;99.90
42743;DHT22;28397;44.552;-0.848;2022-10-30T08:46:36;18.90;99.90
42743;DHT22;28397;44.552;-0.848;2022-10-30T08:49:01;19.10;99.90
42743;DHT22;28397;44.552;-0.848;2022-10-30T08:51:27;19.50;99.90
42743;DHT22;28397;44.552;-0.848;2022-10-30T08:53:56;20.00;99.90
42743;DHT22;28397;44.552;-0.848;2022-10-30T08:56:21;20.70;99.90
42743;DHT22;28397;44.552;-0.848;2022-10-30T08:58:47;21.20;99.90
42743;DHT22;28397;44.552;-0.848;2022-10-30T09:01:14;21.90;99.90
42743;DHT22;28397;44.552;-0.848;2022-10-30T09:03:40;21.80;99.90
42743;DHT22;28397;44.552;-0.848;2022-10-30T09:06:07;21.60;99.90
42743;DHT22;28397;44.552;-0.848;2022-10-30T09:08:33;22.20;99.90
42743;DHT22;28397;44.552;-0.848;2022-10-30T09:10:59;22.50;99.90
42743;DHT22;28397;44.552;-0.848;2022-10-30T09:13:25;22.10;99.90
42743;DHT22;28397;44.552;-0.848;2022-10-30T09:15:50;22.80;99.90
42743;DHT22;28397;44.552;-0.848;2022-10-30T09:18:16;23.00;99.90
42743;DHT22;28397;44.552;-0.848;2022-10-30T09:20:42;22.40;99.90
42743;DHT22;28397;44.552;-0.848;2022-10-30T09:23:07;22.90;99.90
42743;DHT22;28397;44.552;-0.848;2022-10-30T09:25:34;23.20;99.90
42743;DHT22;28397;44.552;-0.848;2022-10-30T09:27:59;23.20;99.90
42743;DHT22;28397;44.552;-0.848;2022-10-30T09:30:25;23.20;99.90
42743;DHT22;28397;44.552;-0.848;2022-10-30T09:32:58;23.30;99.90
42743;DHT22;28397;44.552;-0.848;2022-10-30T09:35:24;23.60;99.90
42743;DHT22;28397;44.552;-0.848;2022-10-30T09:37:50;24.20;99.90
42743;DHT22;28397;44.552;-0.848;2022-10-30T09:43:14;25.10;99.90
42743;DHT22;28397;44.552;-0.848;2022-10-30T09:45:58;25.10;99.90
42743;DHT22;28397;44.552;-0.848;2022-10-30T09:48:38;25.00;99.90
42743;DHT22;28397;44.552;-0.848;2022-10-30T09:52:14;25.50;99.90
42743;DHT22;28397;44.552;-0.848;2022-10-30T10:00:14;25.50;99.90
42743;DHT22;28397;44.552;-0.848;2022-10-30T10:05:23;25.90;99.90
42743;DHT22;28397;44.552;-0.848;2022-10-30T10:07:57;26.20;99.90
42743;DHT22;28397;44.552;-0.848;2022-10-30T10:10:43;26.10;99.90
42743;DHT22;28397;44.552;-0.848;2022-10-30T10:13:29;25.90;99.90
42743;DHT22;28397;44.552;-0.848;2022-10-30T10:16:24;25.60;99.90
42743;DHT22;28397;44.552;-0.848;2022-10-30T10:19:21;25.40;99.90
42743;DHT22;28397;44.552;-0.848;2022-10-30T10:22:13;24.90;99.90
42743;DHT22;28397;44.552;-0.848;2022-10-30T10:24:43;25.70;99.90
42743;DHT22;28397;44.552;-0.848;2022-10-30T10:27:44;25.70;99.90
42743;DHT22;28397;44.552;-0.848;2022-10-30T10:30:19;25.80;99.90
42743;DHT22;28397;44.552;-0.848;2022-10-30T10:44:14;25.80;99.90
42743;DHT22;28397;44.552;-0.848;2022-10-30T10:46:59;24.30;99.90
42743;DHT22;28397;44.552;-0.848;2022-10-30T10:49:38;24.60;99.90
42743;DHT22;28397;44.552;-0.848;2022-10-30T10:52:08;24.30;99.90
42743;DHT22;28397;44.552;-0.848;2022-10-30T10:54:51;25.20;99.90
42743;DHT22;28397;44.552;-0.848;2022-10-30T10:57:28;25.00;99.90
42743;DHT22;28397;44.552;-0.848;2022-10-30T11:00:12;24.50;99.90
42743;DHT22;28397;44.552;-0.848;2022-10-30T11:05:15;24.70;99.90
42743;DHT22;28397;44.552;-0.848;2022-10-30T11:07:47;23.20;99.90
42743;DHT22;28397;44.552;-0.848;2022-10-30T11:10:15;24.30;99.90
42743;DHT22;28397;44.552;-0.848;2022-10-30T11:12:42;23.40;99.90
42743;DHT22;28397;44.552;-0.848;2022-10-30T11:18:18;24.40;99.90
42743;DHT22;28397;44.552;-0.848;2022-10-30T11:21:10;24.70;99.90
42743;DHT22;28397;44.552;-0.848;2022-10-30T11:23:42;24.70;99.90
42743;DHT22;28397;44.552;-0.848;2022-10-30T11:31:28;23.60;99.90
42743;DHT22;28397;44.552;-0.848;2022-10-30T11:36:49;23.50;99.90
42743;DHT22;28397;44.552;-0.848;2022-10-30T11:39:20;24.00;99.90
42743;DHT22;28397;44.552;-0.848;2022-10-30T11:44:37;23.20;99.90
42743;DHT22;28397;44.552;-0.848;2022-10-30T11:47:06;23.90;99.90
42743;DHT22;28397;44.552;-0.848;2022-10-30T11:52:05;24.40;99.90
42743;DHT22;28397;44.552;-0.848;2022-10-30T11:54:35;24.50;99.90
42743;DHT22;28397;44.552;-0.848;2022-10-30T11:57:03;24.20;99.90
42743;DHT22;28397;44.552;-0.848;2022-10-30T11:59:29;23.40;99.90
42743;DHT22;28397;44.552;-0.848;2022-10-30T12:02:18;23.40;99.90
42743;DHT22;28397;44.552;-0.848;2022-10-30T12:04:44;23.10;99.90
42743;DHT22;28397;44.552;-0.848;2022-10-30T12:09:48;24.10;99.90
42743;DHT22;28397;44.552;-0.848;2022-10-30T12:12:40;24.10;99.90
42743;DHT22;28397;44.552;-0.848;2022-10-30T12:17:39;24.30;99.90
42743;DHT22;28397;44.552;-0.848;2022-10-30T12:20:07;23.90;99.90
42743;DHT22;28397;44.552;-0.848;2022-10-30T12:22:37;24.00;99.90
42743;DHT22;28397;44.552;-0.848;2022-10-30T12:27:50;23.00;99.90
42743;DHT22;28397;44.552;-0.848;2022-10-30T12:30:22;22.60;99.90
42743;DHT22;28397;44.552;-0.848;2022-10-30T12:33:34;22.80;99.90
42743;DHT22;28397;44.552;-0.848;2022-10-30T12:35:59;23.40;99.90
42743;DHT22;28397;44.552;-0.848;2022-10-30T12:41:11;23.20;99.90
42743;DHT22;28397;44.552;-0.848;2022-10-30T12:43:41;23.50;99.90
42743;DHT22;28397;44.552;-0.848;2022-10-30T12:57:27;23.80;99.90
42743;DHT22;28397;44.552;-0.848;2022-10-30T13:00:14;23.70;99.90
42743;DHT22;28397;44.552;-0.848;2022-10-30T13:02:59;23.80;99.90
42743;DHT22;28397;44.552;-0.848;2022-10-30T13:05:40;22.90;99.90
42743;DHT22;28397;44.552;-0.848;2022-10-30T13:11:13;23.20;99.90
42743;DHT22;28397;44.552;-0.848;2022-10-30T13:13:44;23.40;99.90
42743;DHT22;28397;44.552;-0.848;2022-10-30T13:16:20;23.60;99.90
42743;DHT22;28397;44.552;-0.848;2022-10-30T13:18:48;23.80;99.90
42743;DHT22;28397;44.552;-0.848;2022-10-30T13:24:17;23.20;99.90
42743;DHT22;28397;44.552;-0.848;2022-10-30T13:26:54;23.70;99.90
42743;DHT22;28397;44.552;-0.848;2022-10-30T13:40:09;23.60;99.90
42743;DHT22;28397;44.552;-0.848;2022-10-30T13:56:28;23.00;99.90
42743;DHT22;28397;44.552;-0.848;2022-10-30T14:04:18;23.40;99.90
42743;DHT22;28397;44.552;-0.848;2022-10-30T14:20:44;22.90;99.90
42743;DHT22;28397;44.552;-0.848;2022-10-30T14:23:31;23.10;99.90
42743;DHT22;28397;44.552;-0.848;2022-10-30T14:28:27;23.00;99.90
42743;DHT22;28397;44.552;-0.848;2022-10-30T14:31:30;22.90;99.90
42743;DHT22;28397;44.552;-0.848;2022-10-30T14:33:57;23.00;99.90
42743;DHT22;28397;44.552;-0.848;2022-10-30T14:36:26;22.60;99.90
42743;DHT22;28397;44.552;-0.848;2022-10-30T14:58:07;22.50;99.90
42743;DHT22;28397;44.552;-0.848;2022-10-30T15:00:43;22.40;99.90
42743;DHT22;28397;44.552;-0.848;2022-10-30T15:05:44;22.40;99.90
42743;DHT22;28397;44.552;-0.848;2022-10-30T15:13:29;22.00;99.90
42743;DHT22;28397;44.552;-0.848;2022-10-30T15:16:03;21.90;99.90
42743;DHT22;28397;44.552;-0.848;2022-10-30T15:18:31;21.90;99.90
42743;DHT22;28397;44.552;-0.848;2022-10-30T15:21:04;21.70;99.90
42743;DHT22;28397;44.552;-0.848;2022-10-30T15:23:34;21.70;99.90
42743;DHT22;28397;44.552;-0.848;2022-10-30T15:26:13;21.70;99.90
42743;DHT22;28397;44.552;-0.848;2022-10-30T15:28:42;21.50;99.90
42743;DHT22;28397;44.552;-0.848;2022-10-30T15:31:22;21.30;99.90
42743;DHT22;28397;44.552;-0.848;2022-10-30T15:33:48;21.40;99.90
42743;DHT22;28397;44.552;-0.848;2022-10-30T15:36:32;21.60;99.90
42743;DHT22;28397;44.552;-0.848;2022-10-30T15:39:15;21.40;99.90
42743;DHT22;28397;44.552;-0.848;2022-10-30T15:41:55;21.00;99.90
42743;DHT22;28397;44.552;-0.848;2022-10-30T15:44:36;20.80;99.90
42743;DHT22;28397;44.552;-0.848;2022-10-30T15:47:04;20.80;99.90
42743;DHT22;28397;44.552;-0.848;2022-10-30T15:49:37;20.70;99.90
42743;DHT22;28397;44.552;-0.848;2022-10-30T15:52:39;20.70;99.90
42743;DHT22;28397;44.552;-0.848;2022-10-30T15:55:09;20.80;99.90
42743;DHT22;28397;44.552;-0.848;2022-10-30T15:57:46;20.70;99.90
42743;DHT22;28397;44.552;-0.848;2022-10-30T16:00:21;20.60;99.90
42743;DHT22;28397;44.552;-0.848;2022-10-30T16:02:47;20.60;99.90
42743;DHT22;28397;44.552;-0.848;2022-10-30T16:05:21;20.50;99.90
42743;DHT22;28397;44.552;-0.848;2022-10-30T16:07:47;20.30;99.90
42743;DHT22;28397;44.552;-0.848;2022-10-30T16:10:15;20.20;99.90
42743;DHT22;28397;44.552;-0.848;2022-10-30T16:12:42;20.10;99.90
42743;DHT22;28397;44.552;-0.848;2022-10-30T16:15:25;20.10;99.90
42743;DHT22;28397;44.552;-0.848;2022-10-30T16:20:51;20.10;99.90
42743;DHT22;28397;44.552;-0.848;2022-10-30T16:23:18;19.90;99.90
42743;DHT22;28397;44.552;-0.848;2022-10-30T16:25:53;19.70;99.90
42743;DHT22;28397;44.552;-0.848;2022-10-30T16:28:31;19.40;99.90
42743;DHT22;28397;44.552;-0.848;2022-10-30T16:31:03;19.40;99.90
42743;DHT22;28397;44.552;-0.848;2022-10-30T16:33:31;19.20;99.90
42743;DHT22;28397;44.552;-0.848;2022-10-30T16:35:58;19.10;99.90
42743;DHT22;28397;44.552;-0.848;2022-10-30T16:38:28;19.00;99.90
42743;DHT22;28397;44.552;-0.848;2022-10-30T16:40:56;19.00;99.90
42743;DHT22;28397;44.552;-0.848;2022-10-30T16:43:32;19.00;99.90
42743;DHT22;28397;44.552;-0.848;2022-10-30T16:46:34;18.80;99.90
42743;DHT22;28397;44.552;-0.848;2022-10-30T16:49:04;18.70;99.90
42743;DHT22;28397;44.552;-0.848;2022-10-30T16:51:30;18.60;99.90
42743;DHT22;28397;44.552;-0.848;2022-10-30T16:53:56;18.60;99.90
42743;DHT22;28397;44.552;-0.848;2022-10-30T16:56:31;18.60;99.90
42743;DHT22;28397;44.552;-0.848;2022-10-30T16:59:23;18.50;99.90
42743;DHT22;28397;44.552;-0.848;2022-10-30T17:01:55;18.20;99.90
42743;DHT22;28397;44.552;-0.848;2022-10-30T17:04:22;18.10;99.90
42743;DHT22;28397;44.552;-0.848;2022-10-30T17:06:49;18.10;99.90
42743;DHT22;28397;44.552;-0.848;2022-10-30T17:09:23;18.10;99.90
42743;DHT22;28397;44.552;-0.848;2022-10-30T17:17:33;17.90;99.90
42743;DHT22;28397;44.552;-0.848;2022-10-30T17:20:02;17.80;99.90
42743;DHT22;28397;44.552;-0.848;2022-10-30T17:22:29;17.60;99.90
42743;DHT22;28397;44.552;-0.848;2022-10-30T17:24:56;17.50;99.90
42743;DHT22;28397;44.552;-0.848;2022-10-30T17:27:27;17.30;99.90
42743;DHT22;28397;44.552;-0.848;2022-10-30T17:29:53;17.20;99.90
42743;DHT22;28397;44.552;-0.848;2022-10-30T17:32:21;17.20;99.90
42743;DHT22;28397;44.552;-0.848;2022-10-30T17:34:56;17.10;99.90
42743;DHT22;28397;44.552;-0.848;2022-10-30T17:37:22;17.00;99.90
42743;DHT22;28397;44.552;-0.848;2022-10-30T17:39:48;17.20;99.90
42743;DHT22;28397;44.552;-0.848;2022-10-30T17:42:14;17.20;99.90
42743;DHT22;28397;44.552;-0.848;2022-10-30T17:44:40;17.00;99.90
42743;DHT22;28397;44.552;-0.848;2022-10-30T17:47:16;17.00;99.90
42743;DHT22;28397;44.552;-0.848;2022-10-30T17:49:43;17.00;99.90
42743;DHT22;28397;44.552;-0.848;2022-10-30T17:52:11;16.90;99.90
42743;DHT22;28397;44.552;-0.848;2022-10-30T17:54:37;16.90;99.90
42743;DHT22;28397;44.552;-0.848;2022-10-30T17:57:03;16.80;99.90
42743;DHT22;28397;44.552;-0.848;2022-10-30T17:59:29;16.70;99.90
42743;DHT22;28397;44.552;-0.848;2022-10-30T18:01:55;16.70;99.90
42743;DHT22;28397;44.552;-0.848;2022-10-30T18:04:20;16.60;99.90
42743;DHT22;28397;44.552;-0.848;2022-10-30T18:06:46;16.60;99.90
42743;DHT22;28397;44.552;-0.848;2022-10-30T18:09:12;16.50;99.90
42743;DHT22;28397;44.552;-0.848;2022-10-30T18:11:38;16.50;99.90
42743;DHT22;28397;44.552;-0.848;2022-10-30T18:14:04;16.50;99.90
42743;DHT22;28397;44.552;-0.848;2022-10-30T18:16:29;16.50;99.90
42743;DHT22;28397;44.552;-0.848;2022-10-30T18:18:55;16.30;99.90
42743;DHT22;28397;44.552;-0.848;2022-10-30T18:21:23;16.20;99.90